createdAt,value
2023-01-02T00:01:41.920Z,16.87
2023-01-02T00:04:09.738Z,16.90
2023-01-02T00:06:39.370Z,16.94
2023-01-02T00:09:08.889Z,16.96
2023-01-02T00:11:36.677Z,16.98
2023-01-02T00:14:04.531Z,17.00
2023-01-02T00:16:32.448Z,17.01
2023-01-02T00:19:00.302Z,17.03
2023-01-02T00:21:28.070Z,17.04
2023-01-02T00:23:55.796Z,17.03
2023-01-02T00:26:23.548Z,17.04
2023-01-02T00:28:51.254Z,17.03
2023-01-02T00:31:19.011Z,17.06
2023-01-02T00:33:46.746Z,17.12
2023-01-02T00:36:14.556Z,17.18
2023-01-02T00:38:44.216Z,17.17
2023-01-02T00:41:11.959Z,17.13
2023-01-02T00:43:40.130Z,17.13
2023-01-02T00:46:11.885Z,17.10
2023-01-02T00:48:40.895Z,17.12
2023-01-02T00:51:09.101Z,17.16
2023-01-02T00:53:37.519Z,17.15
2023-01-02T00:56:05.992Z,17.17
2023-01-02T00:58:34.350Z,17.17
2023-01-02T01:01:02.863Z,17.19
2023-01-02T01:03:30.779Z,17.22
2023-01-02T01:05:58.524Z,17.18
2023-01-02T01:08:26.338Z,17.20
2023-01-02T01:10:54.094Z,17.18
2023-01-02T01:13:21.885Z,17.19
2023-01-02T01:15:49.712Z,17.20
2023-01-02T01:18:17.489Z,17.20
2023-01-02T01:20:45.263Z,17.21
2023-01-02T01:23:12.981Z,17.23
2023-01-02T01:25:40.712Z,17.22
2023-01-02T01:28:08.457Z,17.25
2023-01-02T01:30:36.131Z,17.22
2023-01-02T01:33:03.933Z,17.23
2023-01-02T01:35:34.106Z,17.20
2023-01-02T01:38:02.003Z,17.20
2023-01-02T01:40:37.459Z,17.19
2023-01-02T01:43:12.627Z,17.19
2023-01-02T01:45:44.237Z,17.18
2023-01-02T01:48:17.104Z,17.19
2023-01-02T01:50:45.347Z,17.19
2023-01-02T01:53:18.834Z,17.18
2023-01-02T01:55:56.018Z,17.17
2023-01-02T01:58:33.937Z,17.17
2023-01-02T02:01:02.932Z,17.18
2023-01-02T02:03:33.764Z,17.16
2023-01-02T02:06:03.092Z,17.16
2023-01-02T02:09:00.688Z,17.15
2023-01-02T02:11:30.207Z,17.15
2023-01-02T02:14:01.497Z,17.14
2023-01-02T02:17:01.969Z,17.10
2023-01-02T02:19:32.671Z,17.13
2023-01-02T02:22:25.244Z,17.08
2023-01-02T02:25:33.196Z,17.07
2023-01-02T02:28:04.196Z,17.07
2023-01-02T02:30:43.672Z,17.08
2023-01-02T02:33:37.003Z,17.08
2023-01-02T02:36:34.693Z,17.09
2023-01-02T02:39:33.061Z,17.09
2023-01-02T02:42:28.848Z,17.08
2023-01-02T02:45:19.849Z,17.06
2023-01-02T02:48:34.780Z,17.03
2023-01-02T02:51:11.021Z,17.06
2023-01-02T02:53:45.383Z,17.02
2023-01-02T02:56:16.509Z,16.98
2023-01-02T02:58:46.665Z,17.01
2023-01-02T03:01:18.255Z,17.01
2023-01-02T03:03:46.312Z,17.00
2023-01-02T03:06:24.055Z,17.02
2023-01-02T03:09:19.286Z,17.01
2023-01-02T03:12:32.573Z,17.00
2023-01-02T03:15:33.599Z,16.99
2023-01-02T03:18:33.305Z,16.97
2023-01-02T03:21:09.270Z,16.91
2023-01-02T03:23:45.940Z,16.90
2023-01-02T03:26:25.548Z,16.92
2023-01-02T03:29:02.105Z,16.93
2023-01-02T03:31:32.667Z,16.96
2023-01-02T03:34:14.064Z,16.93
2023-01-02T03:36:45.120Z,16.93
2023-01-02T03:39:18.080Z,16.92
2023-01-02T03:41:55.070Z,16.98
2023-01-02T03:44:31.014Z,16.99
2023-01-02T03:47:30.754Z,16.96
2023-01-02T03:50:04.082Z,16.94
2023-01-02T03:52:32.086Z,16.97
2023-01-02T03:55:00.986Z,16.95
2023-01-02T03:57:43.036Z,16.95
2023-01-02T04:00:15.701Z,16.98
2023-01-02T04:03:03.696Z,16.96
2023-01-02T04:05:46.308Z,16.96
2023-01-02T04:08:22.889Z,16.91
2023-01-02T04:10:58.508Z,16.93
2023-01-02T04:13:40.449Z,16.97
2023-01-02T04:16:13.226Z,16.98
2023-01-02T04:18:51.876Z,16.99
2023-01-02T04:21:26.307Z,16.95
2023-01-02T04:24:19.657Z,16.89
2023-01-02T04:26:56.644Z,16.94
2023-01-02T04:29:25.008Z,16.90
2023-01-02T04:32:12.822Z,16.87
2023-01-02T04:34:42.844Z,16.89
2023-01-02T04:37:10.657Z,16.90
2023-01-02T04:39:39.283Z,16.88
2023-01-02T04:42:07.025Z,16.92
2023-01-02T04:44:34.748Z,16.95
2023-01-02T04:47:02.458Z,16.93
2023-01-02T04:49:30.186Z,16.93
2023-01-02T04:51:57.900Z,16.94
2023-01-02T04:54:25.616Z,16.94
2023-01-02T04:56:53.377Z,16.93
2023-01-02T04:59:21.114Z,16.93
2023-01-02T05:01:48.880Z,16.91
2023-01-02T05:04:16.702Z,16.89
2023-01-02T05:06:44.422Z,16.86
2023-01-02T05:09:12.145Z,16.87
2023-01-02T05:11:39.877Z,16.87
2023-01-02T05:14:08.114Z,16.89
2023-01-02T05:16:35.952Z,16.91
2023-01-02T05:19:03.719Z,16.91
2023-01-02T05:21:49.685Z,16.91
2023-01-02T05:24:17.571Z,16.91
2023-01-02T05:26:45.399Z,16.90
2023-01-02T05:29:13.260Z,16.90
2023-01-02T05:31:41.040Z,16.91
2023-01-02T05:34:15.023Z,16.88
2023-01-02T05:36:43.402Z,16.85
2023-01-02T05:39:13.018Z,16.81
2023-01-02T05:41:41.904Z,16.76
2023-01-02T05:44:10.945Z,16.74
2023-01-02T05:46:39.705Z,16.71
2023-01-02T05:49:09.936Z,16.72
2023-01-02T05:51:37.993Z,16.73
2023-01-02T05:54:07.548Z,16.74
2023-01-02T05:56:35.275Z,16.76
2023-01-02T05:59:07.243Z,16.61
2023-01-02T06:01:35.619Z,16.57
2023-01-02T06:04:03.506Z,16.58
2023-01-02T06:06:40.230Z,16.57
2023-01-02T06:09:12.057Z,16.61
2023-01-02T06:11:39.880Z,16.65
2023-01-02T06:14:09.047Z,16.66
2023-01-02T06:16:40.317Z,16.54
2023-01-02T06:19:08.306Z,16.51
2023-01-02T06:21:36.077Z,16.47
2023-01-02T06:24:03.944Z,16.46
2023-01-02T06:26:35.277Z,16.43
2023-01-02T06:29:04.251Z,16.44
2023-01-02T06:31:33.648Z,16.42
2023-01-02T06:34:04.123Z,16.42
2023-01-02T06:36:34.425Z,16.43
2023-01-02T06:39:02.677Z,16.42
2023-01-02T06:41:30.781Z,16.42
2023-01-02T06:43:58.496Z,16.42
2023-01-02T06:46:26.300Z,16.41
2023-01-02T06:48:54.133Z,16.37
2023-01-02T06:51:23.775Z,16.31
2023-01-02T06:53:51.878Z,16.29
2023-01-02T06:56:20.890Z,16.22
2023-01-02T06:58:49.340Z,16.17
2023-01-02T07:01:22.501Z,16.17
2023-01-02T07:03:50.669Z,16.15
2023-01-02T07:06:22.048Z,16.13
2023-01-02T07:08:50.182Z,16.09
2023-01-02T07:11:24.287Z,16.04
2023-01-02T07:13:54.697Z,16.02
2023-01-02T07:16:24.322Z,16.00
2023-01-02T07:18:54.055Z,16.00
2023-01-02T07:21:23.132Z,16.02
2023-01-02T07:23:50.948Z,16.00
2023-01-02T07:26:18.772Z,15.99
2023-01-02T07:28:47.447Z,16.00
2023-01-02T07:31:18.851Z,16.00
2023-01-02T07:33:46.757Z,16.01
2023-01-02T07:36:18.272Z,16.01
2023-01-02T07:38:51.588Z,16.03
2023-01-02T07:41:23.053Z,16.05
2023-01-02T07:43:53.891Z,16.07
2023-01-02T07:46:24.300Z,16.09
2023-01-02T07:48:52.214Z,16.10
2023-01-02T07:51:26.672Z,16.10
2023-01-02T07:53:56.727Z,16.09
2023-01-02T07:56:26.135Z,16.06
2023-01-02T07:58:53.993Z,16.06
2023-01-02T08:01:22.124Z,16.05
2023-01-02T08:03:50.517Z,16.06
2023-01-02T08:06:19.162Z,16.07
2023-01-02T08:08:47.250Z,16.10
2023-01-02T08:11:19.037Z,16.12
2023-01-02T08:13:47.092Z,16.13
2023-01-02T08:16:21.969Z,16.16
2023-01-02T08:18:55.411Z,16.17
2023-01-02T08:21:25.103Z,16.20
2023-01-02T08:23:53.317Z,16.23
2023-01-02T08:26:21.737Z,16.25
2023-01-02T08:28:49.537Z,16.28
2023-01-02T08:31:21.372Z,16.29
2023-01-02T08:33:50.783Z,16.34
2023-01-02T08:36:19.917Z,16.37
2023-01-02T08:38:47.880Z,16.35
2023-01-02T08:41:15.786Z,16.36
2023-01-02T08:43:43.628Z,16.38
2023-01-02T08:46:11.447Z,16.36
2023-01-02T08:48:39.290Z,16.36
2023-01-02T08:51:07.079Z,16.34
2023-01-02T08:53:34.874Z,16.32
2023-01-02T08:56:23.479Z,16.32
2023-01-02T08:58:56.947Z,16.32
2023-01-02T09:01:27.365Z,16.31
2023-01-02T09:03:56.397Z,16.30
2023-01-02T09:06:27.183Z,16.25
2023-01-02T09:08:57.861Z,16.27
2023-01-02T09:11:33.076Z,16.30
2023-01-02T09:14:02.711Z,16.34
2023-01-02T09:16:30.980Z,16.39
2023-01-02T09:19:01.809Z,16.45
2023-01-02T09:21:30.318Z,16.51
2023-01-02T09:23:58.269Z,16.53
2023-01-02T09:26:26.614Z,16.55
2023-01-02T09:28:54.385Z,16.56
2023-01-02T09:31:22.485Z,16.59
2023-01-02T09:33:51.067Z,16.61
2023-01-02T09:36:20.950Z,16.62
2023-01-02T09:38:54.658Z,16.65
2023-01-02T09:41:33.900Z,16.69
2023-01-02T09:44:26.743Z,16.68
2023-01-02T09:47:13.511Z,16.66
2023-01-02T09:49:49.958Z,16.63
2023-01-02T09:52:27.080Z,16.62
2023-01-02T09:54:55.722Z,16.63
2023-01-02T09:57:29.189Z,16.66
2023-01-02T10:00:24.771Z,16.66
2023-01-02T10:03:19.672Z,16.66
2023-01-02T10:06:13.102Z,16.63
2023-01-02T10:09:13.108Z,16.66
2023-01-02T10:12:01.876Z,16.69
2023-01-02T10:14:56.927Z,16.68
2023-01-02T10:17:28.430Z,16.68
2023-01-02T10:19:58.894Z,16.73
2023-01-02T10:22:43.008Z,16.76
2023-01-02T10:25:27.152Z,16.91
2023-01-02T10:28:14.963Z,16.92
2023-01-02T10:31:07.472Z,16.91
2023-01-02T10:33:54.150Z,16.90
2023-01-02T10:36:27.101Z,16.91
2023-01-02T10:39:00.515Z,16.94
2023-01-02T10:41:30.641Z,17.01
2023-01-02T10:44:05.640Z,17.02
2023-01-02T10:46:37.434Z,17.09
2023-01-02T10:49:07.867Z,17.17
2023-01-02T10:51:38.496Z,17.24
2023-01-02T10:54:09.345Z,17.30
2023-01-02T10:56:39.656Z,17.38
2023-01-02T10:59:29.259Z,17.43
2023-01-02T11:01:59.366Z,17.46
2023-01-02T11:04:30.175Z,17.47
2023-01-02T11:07:01.806Z,17.49
2023-01-02T11:09:33.497Z,17.50
2023-01-02T11:12:13.758Z,17.54
2023-01-02T11:14:41.630Z,17.57
2023-01-02T11:17:19.959Z,17.62
2023-01-02T11:19:52.707Z,17.67
2023-01-02T11:22:34.358Z,17.75
2023-01-02T11:25:12.709Z,17.84
2023-01-02T11:27:44.927Z,17.89
2023-01-02T11:30:35.264Z,17.97
2023-01-02T11:33:32.760Z,18.01
2023-01-02T11:36:03.761Z,18.02
2023-01-02T11:38:51.390Z,18.03
2023-01-02T11:41:48.175Z,18.13
2023-01-02T11:44:33.234Z,18.23
2023-01-02T11:47:03.200Z,18.19
2023-01-02T11:49:48.582Z,18.25
2023-01-02T11:52:23.289Z,18.28
2023-01-02T11:55:22.593Z,18.30
2023-01-02T11:58:35.250Z,18.22
2023-01-02T12:01:18.757Z,18.26
2023-01-02T12:03:47.108Z,18.25
2023-01-02T12:06:15.281Z,18.21
2023-01-02T12:09:07.101Z,18.17
2023-01-02T12:11:56.317Z,18.19
2023-01-02T12:15:01.141Z,18.12
2023-01-02T12:17:51.262Z,18.18
2023-01-02T12:20:44.673Z,18.21
2023-01-02T12:23:34.436Z,18.25
2023-01-02T12:26:19.214Z,18.32
2023-01-02T12:29:11.322Z,18.42
2023-01-02T12:32:28.160Z,18.37
2023-01-02T12:35:12.057Z,18.48
2023-01-02T12:37:58.451Z,18.55
2023-01-02T12:40:26.059Z,18.60
2023-01-02T12:43:29.241Z,18.55
2023-01-02T12:46:21.629Z,18.67
2023-01-02T12:49:35.235Z,18.63
2023-01-02T12:52:54.614Z,18.67
2023-01-02T12:55:34.882Z,18.75
2023-01-02T12:59:00.364Z,18.66
2023-01-02T13:01:55.694Z,18.59
2023-01-02T13:04:33.503Z,18.32
2023-01-02T13:07:14.431Z,18.38
2023-01-02T13:09:45.392Z,18.26
2023-01-02T13:12:24.960Z,18.44
2023-01-02T13:15:09.034Z,18.44
2023-01-02T13:18:07.250Z,18.35
2023-01-02T13:21:12.888Z,18.48
2023-01-02T13:23:51.878Z,18.54
2023-01-02T13:26:26.888Z,18.58
2023-01-02T13:29:09.688Z,18.50
2023-01-02T13:31:49.180Z,18.41
2023-01-02T13:34:31.216Z,18.52
2023-01-02T13:37:15.515Z,18.58
2023-01-02T13:39:43.705Z,18.48
2023-01-02T13:42:51.118Z,18.50
2023-01-02T13:45:31.867Z,18.36
2023-01-02T13:48:04.536Z,18.30
2023-01-02T13:50:38.459Z,18.25
2023-01-02T13:53:12.851Z,18.23
2023-01-02T13:55:40.970Z,18.19
2023-01-02T13:58:20.573Z,18.13
2023-01-02T14:00:55.958Z,18.15
2023-01-02T14:03:24.294Z,18.03
2023-01-02T14:06:00.967Z,18.05
2023-01-02T14:08:34.523Z,18.05
2023-01-02T14:11:05.548Z,18.00
2023-01-02T14:13:43.874Z,17.98
2023-01-02T14:16:36.172Z,17.92
2023-01-02T14:19:12.891Z,17.81
2023-01-02T14:21:52.336Z,17.73
2023-01-02T14:24:44.273Z,17.68
2023-01-02T14:27:33.393Z,17.65
2023-01-02T14:30:06.877Z,17.61
2023-01-02T14:32:34.521Z,17.58
2023-01-02T14:35:32.427Z,17.58
2023-01-02T14:38:19.134Z,17.48
2023-01-02T14:40:48.128Z,17.47
2023-01-02T14:43:38.035Z,17.48
2023-01-02T14:46:23.851Z,17.49
2023-01-02T14:49:25.396Z,17.45
2023-01-02T14:52:07.179Z,17.53
2023-01-02T14:55:07.221Z,17.47
2023-01-02T14:57:40.030Z,17.42
2023-01-02T15:00:34.761Z,17.41
2023-01-02T15:03:17.427Z,17.45
2023-01-02T15:06:16.784Z,17.43
2023-01-02T15:08:50.482Z,17.44
2023-01-02T15:11:38.463Z,17.52
2023-01-02T15:14:11.163Z,17.53
2023-01-02T15:16:53.657Z,17.51
2023-01-02T15:19:29.449Z,17.43
2023-01-02T15:21:57.409Z,17.43
2023-01-02T15:24:31.921Z,17.41
2023-01-02T15:27:33.708Z,17.31
2023-01-02T15:30:40.210Z,17.36
2023-01-02T15:33:33.486Z,17.29
2023-01-02T15:36:18.289Z,17.17
2023-01-02T15:38:47.836Z,17.15
2023-01-02T15:41:20.253Z,17.09
2023-01-02T15:44:08.588Z,17.07
2023-01-02T15:46:36.438Z,17.02
2023-01-02T15:49:05.073Z,16.99
2023-01-02T15:51:39.977Z,16.95
2023-01-02T15:54:18.599Z,16.92
2023-01-02T15:56:46.612Z,16.85
2023-01-02T15:59:34.236Z,16.83
2023-01-02T16:02:03.257Z,16.80
2023-01-02T16:04:33.354Z,16.70
2023-01-02T16:07:26.656Z,16.66
2023-01-02T16:09:56.344Z,16.61
2023-01-02T16:12:24.539Z,16.61
2023-01-02T16:14:57.024Z,16.59
2023-01-02T16:17:39.347Z,16.59
2023-01-02T16:20:19.734Z,16.59
2023-01-02T16:22:54.792Z,16.58
2023-01-02T16:25:36.249Z,16.54
2023-01-02T16:28:34.811Z,16.55
2023-01-02T16:31:16.431Z,16.38
2023-01-02T16:33:45.947Z,16.29
2023-01-02T16:36:24.866Z,16.27
2023-01-02T16:38:55.938Z,16.26
2023-01-02T16:41:35.047Z,16.21
2023-01-02T16:44:12.227Z,16.16
2023-01-02T16:46:46.053Z,16.09
2023-01-02T16:49:24.301Z,16.22
2023-01-02T16:51:54.169Z,16.22
2023-01-02T16:54:22.236Z,16.22
2023-01-02T16:56:50.487Z,16.21
2023-01-02T16:59:18.212Z,16.16
2023-01-02T17:01:46.119Z,16.12
2023-01-02T17:04:15.166Z,16.19
2023-01-02T17:06:42.993Z,16.21
2023-01-02T17:09:10.736Z,16.27
2023-01-02T17:11:59.128Z,16.23
2023-01-02T17:14:32.578Z,16.23
2023-01-02T17:17:00.517Z,16.21
2023-01-02T17:19:28.851Z,16.20
2023-01-02T17:21:56.610Z,16.20
2023-01-02T17:24:24.367Z,16.17
2023-01-02T17:26:52.104Z,16.14
2023-01-02T17:29:20.000Z,16.10
2023-01-02T17:31:47.820Z,16.10
2023-01-02T17:34:17.249Z,15.94
2023-01-02T17:36:45.599Z,15.67
2023-01-02T17:39:13.383Z,15.29
2023-01-02T17:41:41.265Z,15.13
2023-01-02T17:44:09.032Z,14.97
2023-01-02T17:47:09.254Z,14.80
2023-01-02T17:49:24.752Z,14.93
2023-01-02T17:51:52.877Z,14.76
2023-01-02T17:54:20.778Z,14.83
2023-01-02T17:56:48.561Z,14.85
2023-01-02T17:59:19.672Z,14.55
2023-01-02T18:01:49.708Z,14.40
2023-01-02T18:04:18.094Z,14.35
2023-01-02T18:06:46.552Z,14.36
2023-01-02T18:09:14.407Z,14.48
2023-01-02T18:11:43.983Z,14.37
2023-01-02T18:14:28.340Z,14.51
2023-01-02T18:16:57.420Z,14.61
2023-01-02T18:19:37.812Z,14.63
2023-01-02T18:22:16.126Z,14.65
2023-01-02T18:24:46.862Z,14.60
2023-01-02T18:27:20.286Z,14.59
2023-01-02T18:30:07.434Z,14.69
2023-01-02T18:32:38.747Z,14.63
2023-01-02T18:38:38.096Z,14.11
2023-01-02T18:41:32.966Z,13.91
2023-01-02T18:44:25.733Z,13.79
2023-01-02T18:47:25.986Z,13.70
2023-01-02T18:50:01.053Z,13.57
2023-01-02T18:52:33.622Z,13.50
2023-01-02T18:55:11.697Z,13.57
2023-01-02T18:57:55.431Z,13.73
2023-01-02T19:00:28.436Z,13.83
2023-01-02T19:03:25.846Z,13.78
2023-01-02T19:05:54.149Z,13.64
2023-01-02T19:08:35.288Z,13.52
2023-01-02T19:11:38.481Z,13.42
2023-01-02T19:14:23.597Z,13.21
2023-01-02T19:17:28.832Z,13.35
2023-01-02T19:19:56.948Z,13.23
2023-01-02T19:22:32.312Z,13.17
2023-01-02T19:25:08.664Z,13.19
2023-01-02T19:27:38.558Z,13.23
2023-01-02T19:30:31.877Z,13.12
2023-01-02T19:32:59.683Z,13.25
2023-01-02T19:35:38.566Z,13.24
2023-01-02T19:38:30.513Z,12.97
2023-01-02T19:40:59.030Z,12.92
2023-01-02T19:43:27.297Z,12.97
2023-01-02T19:45:55.510Z,13.04
2023-01-02T19:48:23.557Z,13.10
2023-01-02T19:50:51.316Z,13.10
2023-01-02T19:53:19.111Z,13.13
2023-01-02T19:55:46.921Z,13.22
2023-01-02T19:58:14.723Z,13.32
2023-01-02T20:00:42.844Z,13.27
2023-01-02T20:03:11.214Z,12.98
2023-01-02T20:05:39.719Z,13.18
2023-01-02T20:08:07.524Z,13.12
2023-01-02T20:10:35.383Z,12.97
2023-01-02T20:13:03.384Z,13.06
2023-01-02T20:15:31.243Z,13.06
2023-01-02T20:18:02.470Z,13.02
2023-01-02T20:20:34.076Z,13.14
2023-01-02T20:23:01.815Z,13.16
2023-01-02T20:25:29.576Z,13.16
2023-01-02T20:27:57.362Z,13.30
2023-01-02T20:30:26.134Z,13.30
2023-01-02T20:32:55.864Z,13.15
2023-01-02T20:35:23.780Z,13.04
2023-01-02T20:37:51.521Z,13.13
2023-01-02T20:40:19.341Z,13.16
2023-01-02T20:42:47.047Z,13.13
2023-01-02T20:45:15.179Z,13.06
2023-01-02T20:47:42.968Z,13.00
2023-01-02T20:50:11.072Z,12.97
2023-01-02T20:52:38.791Z,13.04
2023-01-02T20:55:07.124Z,13.11
2023-01-02T20:57:34.839Z,13.04
2023-01-02T21:00:09.488Z,13.05
2023-01-02T21:02:37.490Z,13.13
2023-01-02T21:05:05.849Z,13.24
2023-01-02T21:07:33.625Z,13.23
2023-01-02T21:10:01.401Z,13.28
2023-01-02T21:12:47.822Z,13.27
2023-01-02T21:15:34.984Z,13.32
2023-01-02T21:18:03.057Z,13.33
2023-01-02T21:20:30.827Z,13.33
2023-01-02T21:22:58.549Z,13.26
2023-01-02T21:25:26.349Z,13.34
2023-01-02T21:27:54.134Z,13.29
2023-01-02T21:30:22.321Z,13.13
2023-01-02T21:32:50.190Z,13.14
2023-01-02T21:35:18.001Z,13.03
2023-01-02T21:37:45.820Z,12.95
2023-01-02T21:40:13.743Z,13.07
2023-01-02T21:42:44.872Z,13.09
2023-01-02T21:45:13.450Z,13.09
2023-01-02T21:47:41.148Z,13.06
2023-01-02T21:50:10.212Z,12.80
2023-01-02T21:52:38.414Z,12.97
2023-01-02T21:55:07.115Z,13.07
2023-01-02T21:58:11.764Z,13.13
2023-01-02T22:00:27.652Z,13.15
2023-01-02T22:02:56.161Z,13.23
2023-01-02T22:05:24.053Z,13.28
2023-01-02T22:07:51.866Z,13.35
2023-01-02T22:10:19.692Z,13.27
2023-01-02T22:12:47.469Z,13.32
2023-01-02T22:15:15.237Z,13.32
2023-01-02T22:17:42.935Z,13.33
2023-01-02T22:20:11.564Z,13.34
2023-01-02T22:22:39.301Z,13.37
2023-01-02T22:25:08.626Z,13.40
2023-01-02T22:27:37.395Z,13.39
2023-01-02T22:30:31.429Z,13.38
2023-01-02T22:32:55.143Z,13.34
2023-01-02T22:35:22.949Z,13.31
2023-01-02T22:37:50.655Z,13.27
2023-01-02T22:40:18.434Z,13.19
2023-01-02T22:43:00.884Z,13.22
2023-01-02T22:45:34.915Z,13.10
2023-01-02T22:48:08.293Z,13.06
2023-01-02T22:50:43.758Z,13.09
2023-01-02T22:53:29.667Z,13.10
2023-01-02T22:55:57.866Z,12.95
2023-01-02T22:58:26.292Z,12.74
2023-01-02T23:01:13.183Z,12.51
2023-01-02T23:03:43.310Z,12.59
2023-01-02T23:06:12.385Z,12.61
2023-01-02T23:08:42.666Z,12.66
2023-01-02T23:11:10.910Z,12.71
2023-01-02T23:13:39.268Z,12.74
2023-01-02T23:16:25.872Z,12.66
2023-01-02T23:19:12.444Z,12.55
2023-01-02T23:21:46.865Z,12.49
2023-01-02T23:24:19.846Z,12.34
2023-01-02T23:26:54.516Z,12.33
2023-01-02T23:29:24.831Z,12.39
2023-01-02T23:31:53.678Z,12.41
2023-01-02T23:34:26.072Z,12.46
2023-01-02T23:36:56.544Z,12.37
2023-01-02T23:39:28.273Z,12.41
2023-01-02T23:41:56.887Z,12.43
2023-01-02T23:44:26.158Z,12.39
2023-01-02T23:46:54.805Z,12.38
2023-01-02T23:49:23.585Z,12.43
2023-01-02T23:51:53.700Z,12.46
2023-01-02T23:54:22.073Z,12.43
2023-01-02T23:56:51.538Z,12.43
2023-01-02T23:59:22.826Z,12.48
